Airfield :
LOGIN :

Register | Disclaimer

   EN    FR    IT 

 










Legend :    VFR   Marginal VFR   IFR   Intensive IFR   Very Intensive IFR
Visi :
Ceiling :
>= 8 km
>= 3000ft
5 to 8 km
1000 to 3000 ft
1500m to 5 km
500 to 1000 ft
800 to 1500m
200 to 500 ft
< 800m
< 200 ft
Symbols :   Thunderstorms  Fog  Heavy snow  Heavy precipitations  Wind > 20 kt
SIGMETs :     Misc.  Thunderstorms  Icing  Turbulence  Mountain Waves  Volcanic Ashes







- Airport Elevation : 412 ft
- IATA code : ADB


LTBJ - Adnan Menderes

CURRENT METAR :
  • 120550Z 35007KT 270V050 4000 -SHRA BR FEW007 SCT030 BKN100 06/05 Q1015 R342///95 BECMG 9999 NSW

EXPIRED METARs :
  • 120540Z VRB03KT 9999 -SHRA SCT030 BKN100 05/05 Q1015 R342///95 BECMG TL0600 36014KT RMK RWY16 26004KT 230V030
  • 120520Z 22003KT 130V260 9999 SCT030 BKN100 05/04 Q1014 R342///95 BECMG TL0600 36014KT
  • 120450Z VRB02KT 9999 SCT030 BKN100 05/04 Q1014 NOSIG
  • 120420Z VRB02KT 9999 SCT030 BKN100 06/05 Q1014 R162///95 NOSIG
  • 120350Z VRB02KT 9999 SCT030 BKN100 06/05 Q1013 NOSIG
  • 120320Z 02005KT 340V050 9999 SCT030 BKN100 07/05 Q1013 RESHRA NOSIG

TAF TAF LTBJ
Valid from the 12 at 06:00 until the 13 at 06:00 UTC


120440Z 1206/1306 36014KT 9999 SCT030
BECMG 1212/1215 VRB02KT CAVOK
BECMG 1303/1306 SCT030 BKN100
No reported NOTAMs for that airfield.



MET'MAP, your aeronautical weather chart ! - Copyright ORBIFLY December 2007 - Disclaimer

ORBIFLY MET'MAP TEAM :

Programming & Development : Alexandra Zaïnal
Concept & Development : Baudouin d'Aumeries
Co-Development & Prog : Marc-Olivier Méhu
Technical & hardware support : Manuel Goepfert

Contact : metmap@orbifly.com




SOURCES & CREDITS :

   NOAA